Historique des mesures à Cassis (13260), France
Quotidien Résumé Juin 4, 2021 Unités:  US    Métrique   Métrique/US
Quotidien Hebdomadaire Mensuel Annuel
  Maximum: Minimum: Moyenne:
Température: 73.9 °F 54.9 °F 65.1 °F
Point de rosée: 68.5 °F 50.9 °F 61.3 °F
Humidité: 92% 81% 88%
Vitesse du vent: 23.5mph 0mph 5.8mph
Rafales: 24.4mph - -
Vent- - WSW
Pression: 29.8 in 29.7 in -
Précipitations: 5.95 in    
Historical Graphs
 
 
Mesures pour : Juin 4, 2021
Heure Temperature Point de rosée Pression Vent Vitesse du vent Rafales Humidité Pluie (par heure)
00:11 69.6 °F 65.1 °F 29.8 in Calm   4.7 mph 86% 0 in
01:11 69.1 °F 64.4 °F 29.8 in Calm   5.2 mph 85% 0.04 in
02:11 67.8 °F 64 °F 29.8 in Calm   8.9 mph 88% 0.8 in
03:11 67.1 °F 64 °F 29.8 in Calm   8.3 mph 90% 1.49 in
04:11 67.6 °F 64.9 °F 29.8 in SW 2.7 mph 2.7 mph 91% 0.2 in
05:11 67.3 °F 64.6 °F 29.8 in Calm   1.8 mph 91% 0.37 in
06:11 66.6 °F 63.9 °F 29.8 in WNW 1.6 mph 9.6 mph 91% 0.45 in
07:11 65.8 °F 63.5 °F 29.8 in NE 6 mph 7.8 mph 92% 1.79 in
08:11 65.5 °F 63.1 °F 29.8 in WNW 10.5 mph 11.9 mph 92% 0.53 in
09:11 66.7 °F 64 °F 29.8 in WNW 2.7 mph 7.8 mph 91% 0 in
10:11 68.7 °F 65.3 °F 29.8 in North 2.2 mph 5.8 mph 89% 0 in
11:11 73 °F 68.5 °F 29.8 in NNW 2 mph 2 mph 86% 0 in
12:11 72.3 °F 67.3 °F 29.8 in Calm   1.1 mph 84% 0 in
13:11 73.9 °F 68.2 °F 29.8 in Calm   3.8 mph 82% 0 in
14:11 69.6 °F 63.5 °F 29.8 in West 2.5 mph 9.2 mph 81% 0 in
15:11 65.3 °F 61 °F 29.7 in WNW 2.9 mph 12.1 mph 86% 0.02 in
16:11 65.1 °F 61.2 °F 29.7 in NNW 1.1 mph 9.2 mph 87% 0.02 in
17:11 61.7 °F 57.2 °F 29.7 in West 15.9 mph 23.2 mph 85% 0 in
18:11 61.2 °F 57 °F 29.7 in West 14.8 mph 23.9 mph 86% 0 in
19:11 58.8 °F 55 °F 29.7 in WNW 7.4 mph 20.4 mph 87% 0.02 in
20:11 55.9 °F 53.1 °F 29.7 in WNW 13.4 mph 23.1 mph 90% 0.18 in
21:11 55.2 °F 52 °F 29.7 in West 12.6 mph 23.9 mph 89% 0 in
22:11 54.9 °F 51.3 °F 29.8 in NW 23.5 mph 24.4 mph 88% 0 in
23:11 55.4 °F 50.9 °F 29.8 in SW 18.8 mph 22.8 mph 85% 0 in
Observations météo à CASSIS
WU-History script by Weather Underground - 2 mb